Time;durP1;ratioP1;P1;durP2;ratioP2;P2;SDS_P1;SDS_P2;PMS_P1;PMS_P2;Temp;Humidity;BMP_temperature;BMP_pressure;BME280_temperature;BME280_humidity;BME280_pressure;Samples;Min_cycle;Max_cycle;Signal;HPM_P1;HPM_P2
2022/05/30 00:02:07;;;;;;;3.20;0.88;;;20.20;63.10;;;;;;5072766;28;20032;-61
2022/05/30 00:04:35;;;;;;;5.28;1.30;;;20.10;63.10;;;;;;5072133;28;20056;-61
2022/05/30 00:07:00;;;;;;;2.30;0.70;;;20.10;63.10;;;;;;5072246;28;20060;-61
2022/05/30 00:09:26;;;;;;;3.90;0.70;;;20.10;63.10;;;;;;5072613;28;20040;-61
2022/05/30 00:11:51;;;;;;;3.28;0.63;;;20.10;63.00;;;;;;5071623;28;20072;-61
2022/05/30 00:14:17;;;;;;;4.05;0.82;;;20.10;63.00;;;;;;5072652;28;20407;-61
2022/05/30 00:16:43;;;;;;;2.95;0.68;;;20.10;63.00;;;;;;5072415;28;20055;-61
2022/05/30 00:19:08;;;;;;;2.80;0.77;;;20.10;62.90;;;;;;5071819;28;20040;-61
2022/05/30 00:21:34;;;;;;;2.97;0.85;;;20.10;63.00;;;;;;5072221;28;20075;-61
2022/05/30 00:23:59;;;;;;;2.78;0.63;;;20.10;62.90;;;;;;5072131;28;20131;-61
2022/05/30 00:26:25;;;;;;;3.97;0.80;;;20.10;63.00;;;;;;5071601;28;20395;-61
2022/05/30 00:28:50;;;;;;;3.78;0.73;;;20.10;62.90;;;;;;5072473;28;20392;-61
2022/05/30 00:31:16;;;;;;;4.18;0.65;;;20.10;62.90;;;;;;5072554;28;20480;-61
2022/05/30 00:33:42;;;;;;;2.72;0.60;;;20.10;62.90;;;;;;5071439;28;20413;-61
2022/05/30 00:36:08;;;;;;;3.15;0.70;;;20.10;62.90;;;;;;5072234;28;20059;-61
2022/05/30 00:38:33;;;;;;;2.17;0.50;;;20.10;62.90;;;;;;5071884;28;20048;-61
2022/05/30 00:40:59;;;;;;;2.92;0.77;;;20.00;62.80;;;;;;5071183;28;20443;-61
2022/05/30 00:43:33;;;;;;;2.90;0.70;;;20.00;62.80;;;;;;5071992;28;20112;-61
2022/05/30 00:46:01;;;;;;;2.30;0.68;;;20.00;62.80;;;;;;5071918;28;20127;-61
2022/05/30 00:48:35;;;;;;;3.45;0.82;;;20.00;62.80;;;;;;5071781;28;20403;-61
2022/05/30 00:51:04;;;;;;;2.50;0.70;;;20.00;62.80;;;;;;5070865;28;20056;-61
2022/05/30 00:53:29;;;;;;;2.15;0.50;;;20.00;62.80;;;;;;5071276;28;20040;-61
2022/05/30 00:55:55;;;;;;;3.22;0.90;;;20.00;62.90;;;;;;5070419;28;20407;-61
2022/05/30 00:58:21;;;;;;;2.60;0.65;;;20.00;62.80;;;;;;5070763;28;20048;-61
2022/05/30 01:00:46;;;;;;;3.65;0.75;;;20.00;62.80;;;;;;5069907;28;20535;-60
2022/05/30 01:08:40;;;;;;;2.25;0.50;;;20.00;62.80;;;;;;5070870;28;20473;-61
2022/05/30 01:11:06;;;;;;;2.83;0.55;;;19.90;62.70;;;;;;5071776;28;20051;-61
2022/05/30 01:13:31;;;;;;;3.50;0.95;;;19.90;62.70;;;;;;5072009;28;20040;-61
2022/05/30 01:15:57;;;;;;;2.45;0.70;;;19.90;62.80;;;;;;5070681;28;20044;-61
2022/05/30 01:18:25;;;;;;;1.77;0.50;;;19.90;62.70;;;;;;5072120;28;20044;-60
2022/05/30 01:21:15;;;;;;;2.78;0.70;;;19.90;62.70;;;;;;5069824;28;20060;-60
2022/05/30 01:24:14;;;;;;;1.75;0.50;;;19.90;62.70;;;;;;5070569;28;20040;-61
2022/05/30 01:27:04;;;;;;;2.90;0.47;;;19.90;62.60;;;;;;5071419;28;20049;-61
2022/05/30 01:29:34;;;;;;;2.00;0.40;;;19.90;62.70;;;;;;5070225;28;20044;-61
2022/05/30 01:32:00;;;;;;;2.35;0.50;;;19.90;62.60;;;;;;5071617;28;20052;-61
2022/05/30 01:34:26;;;;;;;2.17;0.50;;;19.90;62.60;;;;;;5071751;28;20045;-61
2022/05/30 01:36:52;;;;;;;1.92;0.55;;;19.90;62.50;;;;;;5070803;28;20041;-61
2022/05/30 01:39:17;;;;;;;2.17;0.70;;;19.90;62.50;;;;;;5071887;28;20052;-61
2022/05/30 01:41:43;;;;;;;2.40;0.43;;;19.90;62.50;;;;;;5071463;28;20120;-61
2022/05/30 01:44:09;;;;;;;1.80;0.47;;;19.90;62.40;;;;;;5070814;28;20048;-61
2022/05/30 01:46:34;;;;;;;2.60;0.60;;;19.90;63.00;;;;;;5071644;28;20476;-60
2022/05/30 01:49:00;;;;;;;1.70;0.50;;;19.90;62.40;;;;;;5071473;28;20055;-61
2022/05/30 01:51:25;;;;;;;1.88;0.40;;;20.00;62.50;;;;;;5071930;28;20037;-61
2022/05/30 01:53:51;;;;;;;2.00;0.70;;;20.00;62.50;;;;;;5074688;28;20045;-61
2022/05/30 01:56:17;;;;;;;2.38;0.40;;;19.90;62.50;;;;;;5075252;28;20084;-61
2022/05/30 01:58:43;;;;;;;2.03;0.90;;;20.00;62.60;;;;;;5073833;28;20400;-61
2022/05/30 02:01:20;;;;;;;2.63;0.60;;;20.00;62.60;;;;;;5066194;28;20480;-61
2022/05/30 02:03:46;;;;;;;3.30;0.88;;;20.00;62.50;;;;;;5052394;28;20045;-60
2022/05/30 02:06:11;;;;;;;1.88;0.60;;;20.00;62.60;;;;;;5054147;28;20068;-61
2022/05/30 02:08:37;;;;;;;1.20;0.47;;;20.00;62.50;;;;;;5054019;28;20037;-61
2022/05/30 02:11:03;;;;;;;2.05;0.50;;;20.00;62.50;;;;;;5053885;28;20056;-61
2022/05/30 02:13:28;;;;;;;1.33;0.50;;;20.00;62.50;;;;;;5054821;28;20139;-60
2022/05/30 02:18:38;;;;;;;1.52;0.50;;;20.00;62.40;;;;;;5054107;28;20037;-61
2022/05/30 02:21:03;;;;;;;2.13;0.52;;;20.10;62.50;;;;;;5053828;28;20500;-61
2022/05/30 02:23:29;;;;;;;1.92;0.40;;;20.10;62.50;;;;;;5053081;28;20056;-61
2022/05/30 02:25:54;;;;;;;2.40;0.50;;;20.10;62.50;;;;;;5053568;28;20044;-61
2022/05/30 02:28:20;;;;;;;1.50;0.45;;;20.10;62.40;;;;;;5054688;28;20481;-61
2022/05/30 02:30:45;;;;;;;1.55;0.50;;;20.10;62.40;;;;;;5054401;28;20079;-61
2022/05/30 02:38:39;;;;;;;2.05;0.40;;;20.20;62.40;;;;;;5073597;28;20124;-61
2022/05/30 02:41:05;;;;;;;1.02;0.43;;;20.20;62.50;;;;;;5074301;28;20123;-61
2022/05/30 02:43:30;;;;;;;2.00;0.43;;;20.20;62.40;;;;;;5074359;28;20040;-61
2022/05/30 02:45:56;;;;;;;2.13;0.50;;;20.20;62.40;;;;;;5073184;28;20080;-61
2022/05/30 02:48:21;;;;;;;1.23;0.47;;;20.20;62.40;;;;;;5073271;28;20064;-61
2022/05/30 02:50:47;;;;;;;1.15;0.40;;;20.20;62.30;;;;;;5073045;28;20053;-61
2022/05/30 02:53:12;;;;;;;0.73;0.40;;;20.20;62.40;;;;;;5072940;28;20079;-61
2022/05/30 02:55:38;;;;;;;1.25;0.40;;;20.30;62.40;;;;;;5074101;28;20070;-60
2022/05/30 02:58:03;;;;;;;1.63;0.40;;;20.20;62.30;;;;;;5072648;28;20040;-61
2022/05/30 03:00:29;;;;;;;2.13;0.50;;;20.30;62.40;;;;;;5073102;28;20170;-61
2022/05/30 03:02:55;;;;;;;2.45;0.47;;;20.30;62.30;;;;;;5073236;28;20127;-60
2022/05/30 03:05:21;;;;;;;1.60;0.52;;;20.30;62.30;;;;;;5073746;28;20136;-61
2022/05/30 03:07:46;;;;;;;2.08;0.40;;;20.30;62.30;;;;;;5071686;28;20181;-61
2022/05/30 03:10:12;;;;;;;1.70;0.40;;;20.30;62.20;;;;;;5073358;28;20040;-60
2022/05/30 03:12:37;;;;;;;2.10;0.40;;;20.30;62.50;;;;;;5073608;28;20052;-61
2022/05/30 03:15:03;;;;;;;1.17;0.30;;;20.30;62.20;;;;;;5072250;28;20120;-61
2022/05/30 03:17:28;;;;;;;2.72;0.60;;;20.30;62.20;;;;;;5073507;28;20409;-61
2022/05/30 03:19:54;;;;;;;1.65;0.40;;;20.30;62.20;;;;;;5072279;28;20059;-61
2022/05/30 03:22:20;;;;;;;1.63;0.40;;;20.40;62.30;;;;;;5072760;28;20052;-61
2022/05/30 03:24:45;;;;;;;1.05;0.40;;;20.30;62.20;;;;;;5072986;28;20044;-61
2022/05/30 03:27:11;;;;;;;1.25;0.50;;;20.40;62.20;;;;;;5073479;28;20090;-60
2022/05/30 03:29:36;;;;;;;2.20;0.60;;;20.40;62.30;;;;;;5072492;28;20127;-61
2022/05/30 03:32:02;;;;;;;3.17;0.45;;;20.40;62.20;;;;;;5072971;28;20045;-60
2022/05/30 03:34:27;;;;;;;1.80;0.32;;;20.40;62.20;;;;;;5073132;28;20484;-61
2022/05/30 03:36:53;;;;;;;1.20;0.40;;;20.40;62.20;;;;;;5072054;28;20062;-61
2022/05/30 03:39:18;;;;;;;2.65;0.40;;;20.40;62.20;;;;;;5073235;28;20090;-61
2022/05/30 03:41:45;;;;;;;2.40;0.40;;;20.40;62.20;;;;;;5072944;28;20044;-61
2022/05/30 03:44:10;;;;;;;0.88;0.30;;;20.40;62.20;;;;;;5072543;28;20041;-61
2022/05/30 03:46:36;;;;;;;2.05;0.50;;;20.40;62.20;;;;;;5073023;28;20055;-61
2022/05/30 03:49:01;;;;;;;1.05;0.40;;;20.40;62.20;;;;;;5071312;28;20040;-61
2022/05/30 03:51:27;;;;;;;1.52;0.30;;;20.40;62.20;;;;;;5072648;28;20044;-61
2022/05/30 03:53:52;;;;;;;1.08;0.40;;;20.40;62.10;;;;;;5072379;28;20070;-61
2022/05/30 03:56:19;;;;;;;1.60;0.30;;;20.40;62.10;;;;;;5072327;28;20044;-60
2022/05/30 03:58:44;;;;;;;1.75;0.50;;;20.40;62.10;;;;;;5072527;28;20048;-60
2022/05/30 04:01:10;;;;;;;1.70;0.35;;;20.40;62.10;;;;;;5067040;28;20056;-60
2022/05/30 04:03:36;;;;;;;1.65;0.32;;;20.40;62.10;;;;;;5076240;28;20036;-60
2022/05/30 04:06:02;;;;;;;2.28;0.80;;;20.50;62.10;;;;;;5091538;28;20474;-61
2022/05/30 04:08:27;;;;;;;1.35;0.40;;;20.50;62.10;;;;;;5092860;28;20040;-61
2022/05/30 04:10:53;;;;;;;0.95;0.30;;;20.50;62.10;;;;;;5092000;28;20468;-61
2022/05/30 04:13:18;;;;;;;2.13;0.50;;;20.50;62.10;;;;;;5092794;28;20395;-61
2022/05/30 04:15:43;;;;;;;2.05;0.60;;;20.50;62.00;;;;;;5091929;28;20083;-60
2022/05/30 04:18:09;;;;;;;0.80;0.30;;;20.50;62.00;;;;;;5092241;28;20044;-61
2022/05/30 04:20:35;;;;;;;1.52;0.40;;;20.50;61.90;;;;;;5092704;28;20056;-60
2022/05/30 04:23:00;;;;;;;1.98;0.50;;;20.50;62.00;;;;;;5092429;28;20044;-61
2022/05/30 04:25:26;;;;;;;2.85;0.45;;;20.50;61.90;;;;;;5092050;28;20063;-61
2022/05/30 04:27:52;;;;;;;1.67;0.43;;;20.50;61.90;;;;;;5092436;28;20050;-61
2022/05/30 04:30:17;;;;;;;0.85;0.25;;;20.50;62.00;;;;;;5092787;28;20036;-60
2022/05/30 04:32:43;;;;;;;0.77;0.30;;;20.50;61.90;;;;;;5091495;28;20040;-61
2022/05/30 04:35:09;;;;;;;0.77;0.40;;;20.50;61.90;;;;;;5092038;28;20063;-61
2022/05/30 04:37:35;;;;;;;1.33;0.40;;;20.50;61.80;;;;;;5071934;28;20488;-60
2022/05/30 04:40:00;;;;;;;2.13;0.40;;;20.50;61.80;;;;;;5070447;28;20101;-61
2022/05/30 04:42:26;;;;;;;1.27;0.32;;;20.50;61.80;;;;;;5072437;28;20041;-61
2022/05/30 04:44:51;;;;;;;1.58;0.40;;;20.60;61.90;;;;;;5072138;28;20102;-60
2022/05/30 04:47:17;;;;;;;1.15;0.40;;;20.60;61.80;;;;;;5070681;28;20044;-61
2022/05/30 04:49:42;;;;;;;5.10;0.50;;;20.60;61.80;;;;;;5071650;28;20032;-60
2022/05/30 04:52:08;;;;;;;2.30;0.50;;;20.60;61.80;;;;;;5071092;28;20396;-61
2022/05/30 04:54:34;;;;;;;1.95;0.52;;;20.60;61.80;;;;;;5071439;28;20040;-61
2022/05/30 04:56:59;;;;;;;0.98;0.30;;;20.60;61.80;;;;;;5072012;28;20449;-61
2022/05/30 04:59:25;;;;;;;1.48;0.30;;;20.60;61.80;;;;;;5071178;28;20047;-61
2022/05/30 05:01:51;;;;;;;0.40;0.30;;;20.60;61.70;;;;;;5071708;28;20153;-60
2022/05/30 05:04:16;;;;;;;1.67;0.32;;;20.60;61.70;;;;;;5072249;28;20040;-60
2022/05/30 05:06:45;;;;;;;0.85;0.30;;;20.60;61.70;;;;;;5070954;28;20055;-60
2022/05/30 05:09:16;;;;;;;1.83;0.35;;;20.60;61.70;;;;;;5072161;28;20081;-61
2022/05/30 05:11:42;;;;;;;1.35;0.40;;;20.60;61.60;;;;;;5071587;28;20048;-61
2022/05/30 05:14:07;;;;;;;1.63;0.43;;;20.60;61.60;;;;;;5070116;28;20041;-61
2022/05/30 05:16:33;;;;;;;1.73;0.20;;;20.60;61.60;;;;;;5072135;28;20044;-60
2022/05/30 05:18:59;;;;;;;1.23;0.30;;;20.60;61.60;;;;;;5071757;28;20589;-60
2022/05/30 05:21:29;;;;;;;1.20;0.30;;;20.60;61.60;;;;;;5070891;28;20052;-61
2022/05/30 05:23:55;;;;;;;1.88;0.30;;;20.60;62.20;;;;;;5071922;28;20048;-60
2022/05/30 05:26:20;;;;;;;2.03;0.40;;;20.60;61.60;;;;;;5074492;28;20052;-60
2022/05/30 05:28:46;;;;;;;1.60;0.40;;;20.70;61.60;;;;;;5074667;28;20036;-60
2022/05/30 05:31:25;;;;;;;1.55;0.40;;;20.70;61.60;;;;;;5075782;28;20123;-61
2022/05/30 05:33:51;;;;;;;1.48;0.43;;;20.70;61.60;;;;;;5074367;28;20116;-60
2022/05/30 05:36:21;;;;;;;2.03;0.43;;;20.70;61.60;;;;;;5073335;28;20388;-60
2022/05/30 05:38:46;;;;;;;0.95;0.30;;;20.70;61.60;;;;;;5075020;28;20484;-61
2022/05/30 05:41:12;;;;;;;0.90;0.40;;;20.70;61.60;;;;;;5075153;28;20045;-61
2022/05/30 05:43:37;;;;;;;0.68;0.30;;;20.70;61.60;;;;;;5074663;28;20048;-60
2022/05/30 05:46:03;;;;;;;1.25;0.40;;;20.70;61.60;;;;;;5074978;28;20048;-60
2022/05/30 05:48:29;;;;;;;1.90;0.40;;;20.70;61.60;;;;;;5074897;28;20162;-61
2022/05/30 05:50:54;;;;;;;1.13;0.30;;;20.70;61.50;;;;;;5074992;28;20049;-60
2022/05/30 05:53:19;;;;;;;1.90;0.60;;;20.70;61.40;;;;;;5075246;28;20047;-60
2022/05/30 05:55:45;;;;;;;2.20;0.40;;;20.70;61.40;;;;;;5074092;28;20109;-60
2022/05/30 05:58:11;;;;;;;1.85;0.35;;;20.70;62.00;;;;;;5075207;28;20411;-60
2022/05/30 06:00:36;;;;;;;1.35;0.30;;;20.80;61.50;;;;;;5075193;28;20041;-60
2022/05/30 06:03:02;;;;;;;1.90;0.40;;;20.80;61.40;;;;;;5074049;28;20045;-59
2022/05/30 06:05:30;;;;;;;0.57;0.30;;;20.80;61.40;;;;;;5074666;28;20044;-60
2022/05/30 06:07:59;;;;;;;1.10;0.32;;;20.80;61.40;;;;;;5074201;28;20055;-60
2022/05/30 06:10:25;;;;;;;0.65;0.30;;;20.80;61.50;;;;;;5073809;28;20079;-61
2022/05/30 06:12:50;;;;;;;1.77;0.28;;;20.80;61.40;;;;;;5074348;28;20396;-61
2022/05/30 06:15:17;;;;;;;2.03;0.50;;;20.90;61.50;;;;;;5073799;28;20502;-61
2022/05/30 06:17:43;;;;;;;1.30;0.30;;;20.80;61.40;;;;;;5073712;28;20052;-61
2022/05/30 06:20:10;;;;;;;1.30;0.40;;;20.90;61.50;;;;;;5073839;28;20044;-61
2022/05/30 06:22:35;;;;;;;1.95;0.50;;;20.90;61.60;;;;;;5074758;28;20127;-61
2022/05/30 06:25:01;;;;;;;1.25;0.40;;;20.90;61.60;;;;;;5072754;28;20171;-62
2022/05/30 06:27:26;;;;;;;1.33;0.40;;;20.90;61.60;;;;;;5074444;28;20049;-60
2022/05/30 06:29:52;;;;;;;3.13;0.38;;;21.00;61.70;;;;;;5074304;28;20064;-61
2022/05/30 06:32:18;;;;;;;1.95;0.57;;;21.00;61.70;;;;;;5073773;28;20048;-60
2022/05/30 06:34:43;;;;;;;2.00;0.57;;;21.00;61.80;;;;;;5074001;28;20040;-61
2022/05/30 06:37:10;;;;;;;1.73;0.40;;;21.00;61.70;;;;;;5073771;28;20382;-61
2022/05/30 06:39:37;;;;;;;4.72;0.50;;;21.00;61.70;;;;;;5073334;28;20032;-61
2022/05/30 06:42:03;;;;;;;3.90;0.68;;;21.10;61.90;;;;;;5073363;28;20097;-61
2022/05/30 06:44:29;;;;;;;2.15;0.40;;;21.10;61.90;;;;;;5074148;28;20043;-62
2022/05/30 06:46:54;;;;;;;3.05;0.52;;;21.10;62.00;;;;;;5072822;28;20056;-61
2022/05/30 06:49:20;;;;;;;2.05;0.50;;;21.10;62.10;;;;;;5074326;28;20037;-62
2022/05/30 06:51:45;;;;;;;3.03;0.57;;;21.10;62.00;;;;;;5071999;28;20052;-62
2022/05/30 06:54:11;;;;;;;4.55;0.55;;;21.20;62.10;;;;;;5073422;28;20070;-61
2022/05/30 06:58:11;;;;;;;2.55;0.63;;;21.20;62.20;;;;;;5073722;28;20044;-60
2022/05/30 06:59:25;;;;;;;3.20;0.45;;;21.20;62.30;;;;;;5073127;28;20070;-61
2022/05/30 07:01:52;;;;;;;4.32;0.82;;;21.20;62.30;;;;;;5073662;28;20388;-60
2022/05/30 07:04:18;;;;;;;2.95;0.43;;;21.20;62.30;;;;;;5073767;28;20476;-61
2022/05/30 07:06:44;;;;;;;2.25;0.50;;;21.20;62.30;;;;;;5072517;28;20066;-61
2022/05/30 07:09:10;;;;;;;2.88;0.57;;;21.30;62.40;;;;;;5073864;28;20044;-61
2022/05/30 07:11:38;;;;;;;1.73;0.45;;;21.30;62.40;;;;;;5073804;28;20127;-61
2022/05/30 07:14:04;;;;;;;3.47;0.43;;;21.30;62.40;;;;;;5072773;28;20043;-60
2022/05/30 07:16:29;;;;;;;2.45;0.57;;;21.30;62.40;;;;;;5073797;28;20045;-60
2022/05/30 07:18:56;;;;;;;4.38;0.60;;;21.30;62.40;;;;;;5073381;28;20062;-61
2022/05/30 07:21:22;;;;;;;2.60;0.57;;;21.30;62.30;;;;;;5071501;28;20420;-60
2022/05/30 07:23:48;;;;;;;3.08;0.50;;;21.40;62.40;;;;;;5073144;28;20045;-61
2022/05/30 07:26:16;;;;;;;1.88;0.43;;;21.40;62.40;;;;;;5072343;28;20049;-60
2022/05/30 07:28:42;;;;;;;2.47;0.50;;;21.40;62.30;;;;;;5072416;28;20086;-61
2022/05/30 07:31:09;;;;;;;3.08;0.40;;;21.40;62.30;;;;;;5072615;28;20048;-60
2022/05/30 07:33:35;;;;;;;2.40;0.40;;;21.40;62.20;;;;;;5073347;28;20492;-61
2022/05/30 07:36:02;;;;;;;2.88;0.60;;;21.50;62.20;;;;;;5071719;28;20102;-61
2022/05/30 07:38:27;;;;;;;1.77;0.40;;;21.50;62.20;;;;;;5073085;28;20043;-61
2022/05/30 07:40:53;;;;;;;2.45;0.50;;;21.50;62.20;;;;;;5071440;28;20056;-61
2022/05/30 07:43:18;;;;;;;2.42;0.50;;;21.50;62.20;;;;;;5072158;28;20072;-61
2022/05/30 07:45:44;;;;;;;4.55;0.50;;;21.50;62.20;;;;;;5071863;28;20408;-59
2022/05/30 07:48:09;;;;;;;3.10;0.60;;;21.50;62.20;;;;;;5071168;28;20036;-60
2022/05/30 07:50:35;;;;;;;2.72;0.40;;;21.50;62.20;;;;;;5071911;28;20087;-61
2022/05/30 07:53:01;;;;;;;2.20;0.50;;;21.50;62.20;;;;;;5072036;28;20072;-61
2022/05/30 07:55:26;;;;;;;3.90;0.60;;;21.50;62.20;;;;;;5070596;28;20091;-61
2022/05/30 07:57:52;;;;;;;1.08;0.40;;;21.50;62.10;;;;;;5072264;28;20083;-60
2022/05/30 08:00:19;;;;;;;2.15;0.50;;;21.50;62.10;;;;;;5071646;28;20045;-61
2022/05/30 08:02:44;;;;;;;1.55;0.60;;;21.50;62.10;;;;;;5071786;28;20058;-60
2022/05/30 08:05:11;;;;;;;2.85;0.50;;;21.50;62.00;;;;;;5072676;28;20048;-61
2022/05/30 08:07:36;;;;;;;1.85;0.50;;;21.50;62.00;;;;;;5071857;28;20055;-61
2022/05/30 08:10:03;;;;;;;3.25;0.45;;;21.50;62.60;;;;;;5071664;28;20040;-60
2022/05/30 08:12:28;;;;;;;3.00;0.50;;;21.50;62.00;;;;;;5072424;28;20036;-62
2022/05/30 08:14:54;;;;;;;3.78;0.85;;;21.50;61.80;;;;;;5072450;28;20040;-61
2022/05/30 08:17:20;;;;;;;2.83;0.40;;;21.50;61.70;;;;;;5072019;28;20045;-61
2022/05/30 08:19:46;;;;;;;3.28;0.57;;;21.50;61.80;;;;;;5072359;28;20483;-61
2022/05/30 08:22:12;;;;;;;1.80;0.40;;;21.50;61.80;;;;;;5072030;28;20052;-62
2022/05/30 08:24:39;;;;;;;2.15;0.40;;;21.50;61.80;;;;;;5072017;28;20124;-61
2022/05/30 08:27:04;;;;;;;3.92;0.50;;;21.50;61.90;;;;;;5072345;28;20211;-61
2022/05/30 08:29:30;;;;;;;2.88;0.60;;;21.50;61.90;;;;;;5072510;28;20060;-61
2022/05/30 08:31:56;;;;;;;1.40;0.38;;;21.50;62.50;;;;;;5071499;28;20048;-61
2022/05/30 08:34:21;;;;;;;4.15;0.60;;;21.50;61.90;;;;;;5072167;28;20087;-61
2022/05/30 08:36:47;;;;;;;3.17;0.40;;;21.50;62.00;;;;;;5071576;28;20040;-61
2022/05/30 08:42:00;;;;;;;4.22;0.55;;;21.50;62.00;;;;;;5052168;28;20049;-60
2022/05/30 08:44:29;;;;;;;1.52;0.40;;;21.50;62.00;;;;;;5050258;28;20115;-60
2022/05/30 08:47:00;;;;;;;2.17;0.50;;;21.40;61.80;;;;;;5050889;28;20041;-61
2022/05/30 08:49:28;;;;;;;4.18;0.50;;;21.40;61.70;;;;;;5067190;28;20076;-62
2022/05/30 08:52:09;;;;;;;3.17;0.60;;;21.40;61.70;;;;;;5069735;28;20500;-61
2022/05/30 08:55:02;;;;;;;6.70;0.52;;;21.40;61.70;;;;;;5071058;28;20052;-62
2022/05/30 08:57:33;;;;;;;3.20;0.47;;;21.40;61.70;;;;;;5072610;28;20041;-62
2022/05/30 09:00:05;;;;;;;4.45;0.50;;;21.40;61.70;;;;;;5071671;28;20056;-61
2022/05/30 09:02:45;;;;;;;4.68;0.50;;;21.40;61.60;;;;;;5074615;28;20051;-61
2022/05/30 09:05:15;;;;;;;3.85;0.55;;;21.40;61.60;;;;;;5075624;28;20079;-61
2022/05/30 09:07:43;;;;;;;2.67;0.40;;;21.50;61.70;;;;;;5074109;28;20036;-61
2022/05/30 09:10:16;;;;;;;1.07;0.27;;;21.40;61.70;;;;;;5074122;28;20068;-61
2022/05/30 09:12:46;;;;;;;2.85;0.40;;;21.50;61.70;;;;;;5073895;28;20120;-61
2022/05/30 09:15:18;;;;;;;2.50;0.43;;;21.40;61.60;;;;;;5075098;28;20044;-61
2022/05/30 09:18:02;;;;;;;1.85;0.30;;;21.50;61.70;;;;;;5074629;28;20052;-61
2022/05/30 09:20:28;;;;;;;2.45;0.40;;;21.50;61.70;;;;;;5074929;28;20037;-61
2022/05/30 09:22:54;;;;;;;3.25;0.40;;;21.50;61.70;;;;;;5075180;28;20052;-60
2022/05/30 09:28:07;;;;;;;5.03;0.55;;;21.50;61.60;;;;;;5074171;28;20048;-61
2022/05/30 09:30:48;;;;;;;1.27;0.47;;;21.60;61.60;;;;;;5075997;28;20372;-61
2022/05/30 09:33:36;;;;;;;3.22;0.32;;;21.50;61.50;;;;;;5073882;28;20143;-61
2022/05/30 09:36:21;;;;;;;1.13;0.35;;;21.50;61.50;;;;;;5074371;28;20054;-60
2022/05/30 09:38:48;;;;;;;3.17;0.32;;;21.50;61.40;;;;;;5061172;28;20045;-60
2022/05/30 09:41:19;;;;;;;2.08;0.40;;;21.50;61.50;;;;;;5054854;28;20120;-64
2022/05/30 09:43:51;;;;;;;1.38;0.50;;;21.50;61.50;;;;;;5055275;28;20127;-60
2022/05/30 09:46:33;;;;;;;2.53;0.40;;;21.50;61.50;;;;;;5054147;28;20053;-60
2022/05/30 09:49:02;;;;;;;3.28;0.40;;;21.50;61.20;;;;;;5054349;28;20045;-60
2022/05/30 09:51:35;;;;;;;5.95;0.47;;;21.40;61.20;;;;;;5055354;28;20037;-60
2022/05/30 09:54:01;;;;;;;4.40;0.70;;;21.40;61.10;;;;;;5055139;28;20084;-60
2022/05/30 09:56:27;;;;;;;4.10;0.40;;;21.40;61.10;;;;;;5054325;28;20064;-60
2022/05/30 09:59:10;;;;;;;3.65;0.60;;;21.40;61.70;;;;;;5074982;28;20044;-61
2022/05/30 10:01:36;;;;;;;1.65;0.40;;;21.40;61.10;;;;;;5075228;28;20052;-61
2022/05/30 10:04:35;;;;;;;1.85;0.50;;;21.30;61.10;;;;;;5073203;28;20044;-61
2022/05/30 10:07:15;;;;;;;3.50;0.40;;;21.40;61.10;;;;;;5073601;28;20052;-61
2022/05/30 10:09:52;;;;;;;2.85;0.30;;;21.30;61.20;;;;;;5073208;28;20044;-61
2022/05/30 10:12:34;;;;;;;3.17;0.45;;;21.30;61.10;;;;;;5073239;28;20041;-60
2022/05/30 10:15:00;;;;;;;2.78;0.43;;;21.30;61.10;;;;;;5074580;28;20805;-61
2022/05/30 10:17:31;;;;;;;2.15;0.35;;;21.30;61.20;;;;;;5073953;28;20539;-61
2022/05/30 10:19:57;;;;;;;2.95;0.38;;;21.40;61.30;;;;;;5073761;28;20423;-58
2022/05/30 10:28:27;;;;;;;2.40;0.40;;;21.30;61.20;;;;;;5073756;28;20056;-58
2022/05/30 10:31:10;;;;;;;4.00;0.40;;;21.30;61.20;;;;;;5073307;28;20051;-57
2022/05/30 10:34:01;;;;;;;2.47;0.63;;;21.30;61.30;;;;;;5073311;28;20051;-58
2022/05/30 10:36:35;;;;;;;2.88;0.47;;;21.30;61.40;;;;;;5069451;28;20029;-60
2022/05/30 10:39:15;;;;;;;2.47;0.40;;;21.30;61.50;;;;;;5055769;28;20133;-61
2022/05/30 10:41:47;;;;;;;3.10;0.40;;;21.40;61.60;;;;;;5072763;28;20412;-62
2022/05/30 10:44:33;;;;;;;4.35;1.13;;;21.40;61.60;;;;;;5072965;28;20925;-61
2022/05/30 10:47:15;;;;;;;1.85;0.50;;;21.40;61.60;;;;;;5074400;28;20123;-61
2022/05/30 10:49:49;;;;;;;2.25;0.35;;;21.40;61.60;;;;;;5074070;28;20045;-61
2022/05/30 10:52:27;;;;;;;3.45;0.40;;;21.40;61.10;;;;;;5072326;28;20491;-61
2022/05/30 10:55:06;;;;;;;1.17;0.40;;;21.40;61.00;;;;;;5072504;28;20373;-61
2022/05/30 10:57:52;;;;;;;4.50;0.70;;;21.40;61.00;;;;;;5073136;28;20476;-60
2022/05/30 11:00:18;;;;;;;3.05;0.38;;;21.40;61.10;;;;;;5074769;28;20087;-60
2022/05/30 11:02:58;;;;;;;2.10;0.30;;;21.40;61.10;;;;;;5073706;28;20111;-61
2022/05/30 11:05:42;;;;;;;3.20;0.55;;;21.40;61.00;;;;;;5072024;28;20040;-61
2022/05/30 11:08:24;;;;;;;1.98;0.50;;;21.40;61.10;;;;;;5071369;28;20049;-61
2022/05/30 11:11:07;;;;;;;1.88;0.30;;;21.40;61.10;;;;;;5071978;28;20466;-61
2022/05/30 11:13:42;;;;;;;4.13;0.50;;;21.40;61.10;;;;;;5062815;28;20480;-61
2022/05/30 11:16:55;;;;;;;2.28;0.47;;;21.40;61.20;;;;;;5073359;28;20051;-61
2022/05/30 11:19:31;;;;;;;3.58;0.50;;;21.40;61.20;;;;;;5049602;28;20159;-61
2022/05/30 11:22:16;;;;;;;0.93;0.30;;;21.40;61.20;;;;;;5070625;28;20117;-61
2022/05/30 11:24:42;;;;;;;2.05;0.30;;;21.40;61.30;;;;;;5071970;28;20045;-61
2022/05/30 11:27:34;;;;;;;0.75;0.30;;;21.40;61.30;;;;;;5071151;28;20048;-61
2022/05/30 11:30:43;;;;;;;1.35;0.25;;;21.40;61.30;;;;;;5073204;28;20049;-62
2022/05/30 11:33:35;;;;;;;1.40;0.30;;;21.40;61.30;;;;;;5071112;28;20454;-61
2022/05/30 11:36:17;;;;;;;1.27;0.40;;;21.40;61.30;;;;;;5071989;28;20044;-61
2022/05/30 11:39:00;;;;;;;2.67;0.50;;;21.40;61.40;;;;;;5072671;28;20380;-61
2022/05/30 11:42:10;;;;;;;3.13;0.80;;;21.40;61.40;;;;;;5072367;28;20178;-62
2022/05/30 11:45:06;;;;;;;3.58;1.08;;;21.40;61.50;;;;;;5059223;28;20496;-62
2022/05/30 11:47:37;;;;;;;4.53;1.20;;;21.40;61.30;;;;;;5071443;28;20117;-61
2022/05/30 11:50:27;;;;;;;7.35;1.15;;;21.40;61.30;;;;;;5072852;28;20091;-61
2022/05/30 11:53:14;;;;;;;4.95;1.55;;;21.40;61.40;;;;;;5072719;28;20052;-61
2022/05/30 11:55:45;;;;;;;6.38;1.50;;;21.40;61.50;;;;;;5061436;28;20102;-60
2022/05/30 11:58:13;;;;;;;5.75;1.38;;;21.40;61.70;;;;;;5051259;28;20401;-61
2022/05/30 12:00:44;;;;;;;10.57;2.13;;;21.40;61.50;;;;;;5051656;28;20559;-61
2022/05/30 12:03:12;;;;;;;5.63;1.88;;;21.40;61.40;;;;;;5052486;28;20114;-61
2022/05/30 12:05:37;;;;;;;;;;;21.40;61.40;;;;;;5053341;28;20049;-61
2022/05/30 12:08:17;;;;;;;4.72;1.50;;;21.40;61.40;;;;;;5052152;28;19931;-61
2022/05/30 12:11:10;;;;;;;6.80;1.73;;;21.30;61.50;;;;;;5052867;28;20041;-61
2022/05/30 12:14:02;;;;;;;7.85;1.70;;;21.30;61.50;;;;;;5052753;28;20051;-62
2022/05/30 12:16:48;;;;;;;8.30;1.65;;;21.30;61.60;;;;;;5050452;28;20103;-60
2022/05/30 12:24:59;;;;;;;6.32;1.50;;;21.30;61.60;;;;;;5051273;28;20226;-61
2022/05/30 12:27:30;;;;;;;7.00;1.63;;;21.20;61.60;;;;;;5052333;28;20064;-61
2022/05/30 12:29:56;;;;;;;5.78;1.63;;;21.20;61.60;;;;;;5051594;28;20136;-60
2022/05/30 12:32:22;;;;;;;5.30;1.30;;;21.20;61.60;;;;;;5052367;28;20136;-60
2022/05/30 12:35:06;;;;;;;5.00;1.63;;;21.20;61.60;;;;;;5051811;28;20045;-60
2022/05/30 12:37:41;;;;;;;6.00;1.48;;;21.20;61.60;;;;;;5050002;28;20376;-64
2022/05/30 12:40:13;;;;;;;8.60;2.05;;;21.20;61.70;;;;;;5054795;28;20145;-61
2022/05/30 12:42:42;;;;;;;4.97;1.67;;;21.20;62.20;;;;;;5071826;28;20373;-61
2022/05/30 12:45:20;;;;;;;8.52;1.35;;;21.20;61.60;;;;;;5071405;28;20041;-61
2022/05/30 12:47:47;;;;;;;;;;;21.20;61.20;;;;;;5066660;28;20045;-61
2022/05/30 12:50:25;;;;;;;5.63;1.10;;;21.10;61.00;;;;;;5052092;28;19921;-61
2022/05/30 12:52:56;;;;;;;5.78;1.30;;;21.10;61.10;;;;;;5050844;28;20702;-61
2022/05/30 12:55:33;;;;;;;5.38;1.20;;;21.10;61.00;;;;;;5071942;28;20488;-61
2022/05/30 12:57:58;;;;;;;7.75;1.58;;;21.10;61.00;;;;;;5071368;28;20052;-61
2022/05/30 13:00:46;;;;;;;6.72;1.23;;;21.10;61.00;;;;;;5071028;28;20096;-60
2022/05/30 13:03:24;;;;;;;3.53;0.93;;;21.10;60.90;;;;;;5072521;28;20040;-61
2022/05/30 13:06:13;;;;;;;4.63;1.35;;;21.10;60.90;;;;;;5071168;28;20548;-61
2022/05/30 13:08:52;;;;;;;3.60;1.10;;;21.10;61.00;;;;;;5071706;28;20098;-61
2022/05/30 13:11:25;;;;;;;4.07;0.90;;;21.10;60.90;;;;;;5071900;28;20045;-61
2022/05/30 13:13:52;;;;;;;4.22;1.30;;;21.10;60.90;;;;;;5070137;28;20037;-61
2022/05/30 13:16:33;;;;;;;4.10;1.05;;;21.10;60.80;;;;;;5070547;28;20048;-61
2022/05/30 13:18:59;;;;;;;5.85;1.17;;;21.10;60.80;;;;;;5070331;28;20102;-61
2022/05/30 13:21:27;;;;;;;3.35;0.90;;;21.10;60.90;;;;;;5070681;28;20049;-61
2022/05/30 13:23:53;;;;;;;6.57;1.13;;;21.10;60.80;;;;;;5070804;28;20045;-61
2022/05/30 13:26:18;;;;;;;4.00;1.05;;;21.10;60.80;;;;;;5071388;28;20127;-61
2022/05/30 13:28:45;;;;;;;4.63;1.00;;;21.10;60.70;;;;;;5071628;28;20128;-61
2022/05/30 13:31:12;;;;;;;3.65;1.00;;;21.10;60.70;;;;;;5071992;28;20037;-61
2022/05/30 13:33:55;;;;;;;3.78;0.73;;;21.10;60.60;;;;;;5070342;28;20119;-61